Nivaria — ECHI — position and weather

sailwx.info

Track history (hours):
 
Tides and Currents Weather Stations Pressure Air Temp Water Temp Dewpoint Dewpoint Depression Visibility Wind Speed Wind Dir Waves Ship Positions

Nivaria

Last reported at 2017-Oct-22 16:03 UTC. Time now 2017-Oct-23 06:30 UTC.
Position N 27°59' W 015°23'.

Length 97 m; draft 6.7 m.

Type: Ship. MMSI: 224296000.

Date/timePositionNaut miles runAvg speedWind from/ knotsBaromVisibWave heightAir tempDewpointWater temp
2017-Oct-22 16:03N 27°59' W 015°23'0 0.3
2017-Oct-22 16:00N 27°59' W 015°23'1 2.8
2017-Oct-22 15:30N 27°59' W 015°21'510.9
2017-Oct-22 15:00N 28°04' W 015°20'510.9
2017-Oct-22 14:31N 28°10' W 015°20'4 8.2
2017-Oct-22 14:00N 28°14' W 015°21'5 9.1
2017-Oct-22 13:30N 28°15' W 015°26'5 9.2
2017-Oct-22 13:00N 28°16' W 015°31'4 9.0
2017-Oct-22 12:31N 28°17' W 015°36'4 8.9
2017-Oct-22 12:00N 28°18' W 015°41'4 8.6
2017-Oct-22 11:30N 28°19' W 015°46'4 8.7
2017-Oct-22 11:00N 28°20' W 015°51'5 9.1
2017-Oct-22 10:31N 28°21' W 015°56'5 9.3
2017-Oct-22 10:00N 28°23' W 016°01'5 9.1
2017-Oct-22 09:30N 28°24' W 016°06'9 0.8
2017-Oct-21 22:16N 28°27' W 016°15'1 5.1
2017-Oct-21 22:00N 28°26' W 016°14'1 0.9
2017-Oct-21 21:19N 28°25' W 016°14'2 6.0
2017-Oct-21 20:57N 28°23' W 016°16'4 8.9
2017-Oct-21 20:29N 28°26' W 016°13'4 8.4
2017-Oct-21 20:00N 28°22' W 016°14'2 2.1
2017-Oct-21 19:10N 28°24' W 016°14'1 5.5
2017-Oct-21 18:56N 28°23' W 016°14'7 9.9
2017-Oct-21 18:13N 28°17' W 016°18'2 9.9
2017-Oct-21 17:59N 28°15' W 016°19'34 0.8
2017-Oct-19 21:01N 28°39' W 016°46'110.3
2017-Oct-19 20:58N 28°39' W 016°45'510.2
2017-Oct-19 20:26N 28°39' W 016°39'610.1
2017-Oct-19 19:53N 28°39' W 016°33'510.3
2017-Oct-19 19:24N 28°39' W 016°27'20 7.9
2017-Oct-19 16:53N 28°30' W 016°07'8 0.6
2017-Oct-19 02:38N 28°27' W 016°15'1 6.7
2017-Oct-19 02:27N 28°27' W 016°14'4 0.3
2017-Oct-18 11:39N 28°30' W 016°11'0 0.2
2017-Oct-18 11:29N 28°30' W 016°11'0 0.1
2017-Oct-18 10:59N 28°30' W 016°11'0 0.8
2017-Oct-18 10:30N 28°30' W 016°11'4 6.5
2017-Oct-18 09:50N 28°30' W 016°06'410.8
2017-Oct-18 09:27N 28°32' W 016°02'511.0
2017-Oct-18 09:00N 28°36' W 015°58'611.0
2017-Oct-18 08:30N 28°40' W 015°55'811.0
2017-Oct-18 07:45N 28°47' W 015°49'2 9.8
2017-Oct-18 07:30N 28°47' W 015°47'510.5
2017-Oct-18 07:00N 28°45' W 015°41'510.7
2017-Oct-18 06:30N 28°43' W 015°35'510.5
2017-Oct-18 06:00N 28°40' W 015°30'510.5
2017-Oct-18 05:30N 28°38' W 015°25'510.6
2017-Oct-18 05:00N 28°35' W 015°20'5 9.7
2017-Oct-18 04:30N 28°34' W 015°14'611.6
2017-Oct-18 04:00N 28°38' W 015°09'611.6
2017-Oct-18 03:30N 28°42' W 015°04'611.8
2017-Oct-18 03:00N 28°45' W 014°59'69 9.0
2017-Oct-17 19:18N 28°51' W 013°41'411.0
2017-Oct-17 18:58N 28°53' W 013°37'510.4
2017-Oct-17 18:30N 28°56' W 013°32'2 2.3
2017-Oct-17 17:37N 28°58' W 013°32'0 0.0
2017-Oct-17 17:19N 28°58' W 013°32'0 0.0
2017-Oct-17 16:43N 28°58' W 013°32'0 0.0
2017-Oct-17 16:19N 28°58' W 013°32'0 0.0
2017-Oct-17 15:55N 28°58' W 013°32'0 0.0
2017-Oct-17 15:19N 28°58' W 013°32'0 0.0
2017-Oct-17 14:55N 28°58' W 013°32'0 0.0
2017-Oct-17 14:25N 28°58' W 013°32'0 0.0
2017-Oct-17 13:55N 28°58' W 013°32'0 0.0
2017-Oct-17 13:25N 28°58' W 013°32'0 0.0
2017-Oct-17 12:49N 28°58' W 013°32'0 0.0
2017-Oct-17 12:19N 28°58' W 013°32'0 0.0
2017-Oct-17 11:55N 28°58' W 013°32'0 0.0
2017-Oct-17 11:25N 28°58' W 013°32'0 0.0
2017-Oct-17 10:52N 28°58' W 013°32'0 0.0
2017-Oct-17 09:13N 28°58' W 013°32'0 0.0
2017-Oct-17 08:58N 28°58' W 013°32'0 0.0
2017-Oct-17 07:13N 28°58' W 013°32'0 0.0
2017-Oct-17 06:49N 28°58' W 013°32'0 0.0
2017-Oct-17 06:30N 28°58' W 013°32'1 2.7
2017-Oct-17 06:00N 28°57' W 013°32'4 8.8
2017-Oct-17 05:30N 28°52' W 013°30'2 3.5
2017-Oct-17 05:00N 28°51' W 013°30'0 0.2
2017-Oct-17 04:30N 28°51' W 013°30'0 0.3
2017-Oct-17 04:00N 28°51' W 013°30'0 0.5
2017-Oct-17 03:31N 28°51' W 013°30'0 0.6
2017-Oct-17 03:00N 28°51' W 013°29'0 0.7
2017-Oct-17 02:30N 28°52' W 013°29'0 0.8
2017-Oct-17 02:00N 28°52' W 013°29'0 0.8
2017-Oct-17 01:30N 28°52' W 013°29'0 0.8
2017-Oct-17 01:00N 28°53' W 013°28'1 0.8
2017-Oct-17 00:16N 28°53' W 013°28'0 0.8
2017-Oct-17 00:00N 28°53' W 013°28'0 0.7
2017-Oct-16 23:31N 28°54' W 013°28'0 0.7
2017-Oct-16 23:00N 28°54' W 013°28'0 0.6
2017-Oct-16 22:29N 28°54' W 013°28'0 0.6
2017-Oct-16 22:01N 28°55' W 013°27'0 0.6
2017-Oct-16 21:30N 28°55' W 013°28'0 0.7
2017-Oct-16 21:00N 28°55' W 013°28'3 7.0
2017-Oct-16 20:31N 28°52' W 013°31'611.4
2017-Oct-16 20:00N 28°48' W 013°35'1911.1
2017-Oct-16 18:19N 28°31' W 013°44'310.7
2017-Oct-16 18:00N 28°28' W 013°45'510.6
2017-Oct-16 17:30N 28°23' W 013°47'510.6
2017-Oct-16 16:59N 28°18' W 013°49'510.6
2017-Oct-16 16:30N 28°13' W 013°51'610.6
2017-Oct-16 15:54N 28°09' W 013°57'410.7
2017-Oct-16 15:30N 28°07' W 014°01'910.8
2017-Oct-16 14:38N 28°03' W 014°11'711.0
2017-Oct-16 14:00N 28°00' W 014°18'510.5
2017-Oct-16 13:30N 28°00' W 014°24'510.9
2017-Oct-16 13:00N 28°00' W 014°30'611.5
2017-Oct-16 12:30N 28°01' W 014°36'611.1
2017-Oct-16 12:01N 28°01' W 014°43'611.2
2017-Oct-16 11:31N 28°02' W 014°49'611.1
2017-Oct-16 11:00N 28°03' W 014°55'510.8
2017-Oct-16 10:31N 28°03' W 015°01'510.4
2017-Oct-16 10:01N 28°03' W 015°07'510.7
2017-Oct-16 09:31N 28°01' W 015°13'611.0
2017-Oct-16 09:00N 27°59' W 015°19'3 6.6
2017-Oct-16 08:30N 27°58' W 015°22'0 0.0
2017-Oct-15 17:21N 27°59' W 015°23'0 0.7
2017-Oct-15 17:00N 27°59' W 015°22'3 5.7
2017-Oct-15 16:30N 27°58' W 015°19'2 4.7
2017-Oct-15 16:00N 27°57' W 015°17'0 0.6
2017-Oct-15 15:30N 27°58' W 015°17'0 0.0
2017-Oct-15 15:01N 27°58' W 015°17'0 0.2
2017-Oct-15 14:01N 27°57' W 015°17'0 0.3
2017-Oct-15 13:30N 27°57' W 015°17'0 0.2
2017-Oct-15 13:00N 27°57' W 015°17'0 0.2
2017-Oct-15 12:31N 27°57' W 015°17'0 0.2
2017-Oct-15 12:01N 27°57' W 015°16'0 0.1
2017-Oct-15 11:31N 27°57' W 015°16'0 0.1
2017-Oct-15 11:01N 27°57' W 015°16'0 0.1
2017-Oct-15 10:30N 27°57' W 015°16'0 0.1
2017-Oct-15 10:00N 27°57' W 015°16'0 0.3
2017-Oct-15 09:31N 27°58' W 015°16'2 4.9
2017-Oct-15 09:00N 27°58' W 015°19'3 0.3
2017-Oct-14 22:50N 27°59' W 015°23'0 0.0
2017-Oct-14 22:26N 27°59' W 015°23'0 0.0
2017-Oct-14 21:56N 27°59' W 015°23'0 0.0
2017-Oct-14 20:33N 27°59' W 015°23'0 0.2
2017-Oct-14 20:30N 27°59' W 015°23'1 1.5
2017-Oct-14 20:01N 27°59' W 015°22'4 7.0
2017-Oct-14 19:30N 28°02' W 015°21'611.6
2017-Oct-14 19:00N 28°08' W 015°21'611.4
2017-Oct-14 18:30N 28°13' W 015°22'611.4
2017-Oct-14 18:00N 28°18' W 015°26'611.4
2017-Oct-14 17:30N 28°22' W 015°31'611.3
2017-Oct-14 17:00N 28°26' W 015°35'611.3
2017-Oct-14 16:30N 28°31' W 015°39'611.2
2017-Oct-14 16:00N 28°35' W 015°44'611.4
2017-Oct-14 15:30N 28°38' W 015°49'511.2
2017-Oct-14 15:00N 28°39' W 015°55'611.1
2017-Oct-14 14:30N 28°39' W 016°01'510.9
2017-Oct-14 14:00N 28°39' W 016°08'1310.9
2017-Oct-14 12:49N 28°39' W 016°22'411.3
2017-Oct-14 12:26N 28°39' W 016°27'611.3
2017-Oct-14 11:55N 28°39' W 016°34'611.1
2017-Oct-14 11:25N 28°39' W 016°40'35 0.9
2017-Oct-12 19:25N 28°08' W 016°21'710.6
2017-Oct-12 18:48N 28°14' W 016°18'410.7
2017-Oct-12 18:27N 28°18' W 016°17'511.4
2017-Oct-12 18:00N 28°22' W 016°14'4 8.3
2017-Oct-12 17:30N 28°27' W 016°16'0 0.9
2017-Oct-12 16:57N 28°27' W 016°16'0 0.0
2017-Oct-12 16:30N 28°27' W 016°16'  
Track history (hours):
 
Tides and Currents Weather Stations Pressure Air Temp Water Temp Dewpoint Dewpoint Depression Visibility Wind Speed Wind Dir Waves Ship Positions

Nivaria

Last reported at 2017-Oct-22 16:03 UTC. Time now 2017-Oct-23 06:30 UTC.
Position N 27°59' W 015°23'.

Length 97 m; draft 6.7 m.

Type: Ship. MMSI: 224296000.

Date/timePositionNaut miles runAvg speedWind from/ knotsBaromVisibWave heightAir tempDewpointWater temp
2017-Oct-22 16:03N 27°59' W 015°23'0 0.3
2017-Oct-22 16:00N 27°59' W 015°23'1 2.8
2017-Oct-22 15:30N 27°59' W 015°21'510.9
2017-Oct-22 15:00N 28°04' W 015°20'510.9
2017-Oct-22 14:31N 28°10' W 015°20'4 8.2
2017-Oct-22 14:00N 28°14' W 015°21'5 9.1
2017-Oct-22 13:30N 28°15' W 015°26'5 9.2
2017-Oct-22 13:00N 28°16' W 015°31'4 9.0
2017-Oct-22 12:31N 28°17' W 015°36'4 8.9
2017-Oct-22 12:00N 28°18' W 015°41'4 8.6
2017-Oct-22 11:30N 28°19' W 015°46'4 8.7
2017-Oct-22 11:00N 28°20' W 015°51'5 9.1
2017-Oct-22 10:31N 28°21' W 015°56'5 9.3
2017-Oct-22 10:00N 28°23' W 016°01'5 9.1
2017-Oct-22 09:30N 28°24' W 016°06'9 0.8
2017-Oct-21 22:16N 28°27' W 016°15'1 5.1
2017-Oct-21 22:00N 28°26' W 016°14'1 0.9
2017-Oct-21 21:19N 28°25' W 016°14'2 6.0
2017-Oct-21 20:57N 28°23' W 016°16'4 8.9
2017-Oct-21 20:29N 28°26' W 016°13'4 8.4
2017-Oct-21 20:00N 28°22' W 016°14'2 2.1
2017-Oct-21 19:10N 28°24' W 016°14'1 5.5
2017-Oct-21 18:56N 28°23' W 016°14'7 9.9
2017-Oct-21 18:13N 28°17' W 016°18'2 9.9
2017-Oct-21 17:59N 28°15' W 016°19'34 0.8
2017-Oct-19 21:01N 28°39' W 016°46'110.3
2017-Oct-19 20:58N 28°39' W 016°45'510.2
2017-Oct-19 20:26N 28°39' W 016°39'610.1
2017-Oct-19 19:53N 28°39' W 016°33'510.3
2017-Oct-19 19:24N 28°39' W 016°27'20 7.9
2017-Oct-19 16:53N 28°30' W 016°07'8 0.6
2017-Oct-19 02:38N 28°27' W 016°15'1 6.7
2017-Oct-19 02:27N 28°27' W 016°14'4 0.3
2017-Oct-18 11:39N 28°30' W 016°11'0 0.2
2017-Oct-18 11:29N 28°30' W 016°11'0 0.1
2017-Oct-18 10:59N 28°30' W 016°11'0 0.8
2017-Oct-18 10:30N 28°30' W 016°11'4 6.5
2017-Oct-18 09:50N 28°30' W 016°06'410.8
2017-Oct-18 09:27N 28°32' W 016°02'511.0
2017-Oct-18 09:00N 28°36' W 015°58'611.0
2017-Oct-18 08:30N 28°40' W 015°55'811.0
2017-Oct-18 07:45N 28°47' W 015°49'2 9.8
2017-Oct-18 07:30N 28°47' W 015°47'510.5
2017-Oct-18 07:00N 28°45' W 015°41'510.7
2017-Oct-18 06:30N 28°43' W 015°35'510.5
2017-Oct-18 06:00N 28°40' W 015°30'510.5
2017-Oct-18 05:30N 28°38' W 015°25'510.6
2017-Oct-18 05:00N 28°35' W 015°20'5 9.7
2017-Oct-18 04:30N 28°34' W 015°14'611.6
2017-Oct-18 04:00N 28°38' W 015°09'611.6
2017-Oct-18 03:30N 28°42' W 015°04'611.8
2017-Oct-18 03:00N 28°45' W 014°59'69 9.0
2017-Oct-17 19:18N 28°51' W 013°41'411.0
2017-Oct-17 18:58N 28°53' W 013°37'510.4
2017-Oct-17 18:30N 28°56' W 013°32'2 2.3
2017-Oct-17 17:37N 28°58' W 013°32'0 0.0
2017-Oct-17 17:19N 28°58' W 013°32'0 0.0
2017-Oct-17 16:43N 28°58' W 013°32'0 0.0
2017-Oct-17 16:19N 28°58' W 013°32'0 0.0
2017-Oct-17 15:55N 28°58' W 013°32'0 0.0
2017-Oct-17 15:19N 28°58' W 013°32'0 0.0
2017-Oct-17 14:55N 28°58' W 013°32'0 0.0
2017-Oct-17 14:25N 28°58' W 013°32'0 0.0
2017-Oct-17 13:55N 28°58' W 013°32'0 0.0
2017-Oct-17 13:25N 28°58' W 013°32'0 0.0
2017-Oct-17 12:49N 28°58' W 013°32'0 0.0
2017-Oct-17 12:19N 28°58' W 013°32'0 0.0
2017-Oct-17 11:55N 28°58' W 013°32'0 0.0
2017-Oct-17 11:25N 28°58' W 013°32'0 0.0
2017-Oct-17 10:52N 28°58' W 013°32'0 0.0
2017-Oct-17 09:13N 28°58' W 013°32'0 0.0
2017-Oct-17 08:58N 28°58' W 013°32'0 0.0
2017-Oct-17 07:13N 28°58' W 013°32'0 0.0
2017-Oct-17 06:49N 28°58' W 013°32'0 0.0
2017-Oct-17 06:30N 28°58' W 013°32'1 2.7
2017-Oct-17 06:00N 28°57' W 013°32'4 8.8
2017-Oct-17 05:30N 28°52' W 013°30'2 3.5
2017-Oct-17 05:00N 28°51' W 013°30'0 0.2
2017-Oct-17 04:30N 28°51' W 013°30'0 0.3
2017-Oct-17 04:00N 28°51' W 013°30'0 0.5
2017-Oct-17 03:31N 28°51' W 013°30'0 0.6
2017-Oct-17 03:00N 28°51' W 013°29'0 0.7
2017-Oct-17 02:30N 28°52' W 013°29'0 0.8
2017-Oct-17 02:00N 28°52' W 013°29'0 0.8
2017-Oct-17 01:30N 28°52' W 013°29'0 0.8
2017-Oct-17 01:00N 28°53' W 013°28'1 0.8
2017-Oct-17 00:16N 28°53' W 013°28'0 0.8
2017-Oct-17 00:00N 28°53' W 013°28'0 0.7
2017-Oct-16 23:31N 28°54' W 013°28'0 0.7
2017-Oct-16 23:00N 28°54' W 013°28'0 0.6
2017-Oct-16 22:29N 28°54' W 013°28'0 0.6
2017-Oct-16 22:01N 28°55' W 013°27'0 0.6
2017-Oct-16 21:30N 28°55' W 013°28'0 0.7
2017-Oct-16 21:00N 28°55' W 013°28'3 7.0
2017-Oct-16 20:31N 28°52' W 013°31'611.4
2017-Oct-16 20:00N 28°48' W 013°35'1911.1
2017-Oct-16 18:19N 28°31' W 013°44'310.7
2017-Oct-16 18:00N 28°28' W 013°45'510.6
2017-Oct-16 17:30N 28°23' W 013°47'510.6
2017-Oct-16 16:59N 28°18' W 013°49'510.6
2017-Oct-16 16:30N 28°13' W 013°51'610.6
2017-Oct-16 15:54N 28°09' W 013°57'410.7
2017-Oct-16 15:30N 28°07' W 014°01'910.8
2017-Oct-16 14:38N 28°03' W 014°11'711.0
2017-Oct-16 14:00N 28°00' W 014°18'510.5
2017-Oct-16 13:30N 28°00' W 014°24'510.9
2017-Oct-16 13:00N 28°00' W 014°30'611.5
2017-Oct-16 12:30N 28°01' W 014°36'611.1
2017-Oct-16 12:01N 28°01' W 014°43'611.2
2017-Oct-16 11:31N 28°02' W 014°49'611.1
2017-Oct-16 11:00N 28°03' W 014°55'510.8
2017-Oct-16 10:31N 28°03' W 015°01'510.4
2017-Oct-16 10:01N 28°03' W 015°07'510.7
2017-Oct-16 09:31N 28°01' W 015°13'611.0
2017-Oct-16 09:00N 27°59' W 015°19'3 6.6
2017-Oct-16 08:30N 27°58' W 015°22'0 0.0
2017-Oct-15 17:21N 27°59' W 015°23'0 0.7
2017-Oct-15 17:00N 27°59' W 015°22'3 5.7
2017-Oct-15 16:30N 27°58' W 015°19'2 4.7
2017-Oct-15 16:00N 27°57' W 015°17'0 0.6
2017-Oct-15 15:30N 27°58' W 015°17'0 0.0
2017-Oct-15 15:01N 27°58' W 015°17'0 0.2
2017-Oct-15 14:01N 27°57' W 015°17'0 0.3
2017-Oct-15 13:30N 27°57' W 015°17'0 0.2
2017-Oct-15 13:00N 27°57' W 015°17'0 0.2
2017-Oct-15 12:31N 27°57' W 015°17'0 0.2
2017-Oct-15 12:01N 27°57' W 015°16'0 0.1
2017-Oct-15 11:31N 27°57' W 015°16'0 0.1
2017-Oct-15 11:01N 27°57' W 015°16'0 0.1
2017-Oct-15 10:30N 27°57' W 015°16'0 0.1
2017-Oct-15 10:00N 27°57' W 015°16'0 0.3
2017-Oct-15 09:31N 27°58' W 015°16'2 4.9
2017-Oct-15 09:00N 27°58' W 015°19'3 0.3
2017-Oct-14 22:50N 27°59' W 015°23'0 0.0
2017-Oct-14 22:26N 27°59' W 015°23'0 0.0
2017-Oct-14 21:56N 27°59' W 015°23'0 0.0
2017-Oct-14 20:33N 27°59' W 015°23'0 0.2
2017-Oct-14 20:30N 27°59' W 015°23'1 1.5
2017-Oct-14 20:01N 27°59' W 015°22'4 7.0
2017-Oct-14 19:30N 28°02' W 015°21'611.6
2017-Oct-14 19:00N 28°08' W 015°21'611.4
2017-Oct-14 18:30N 28°13' W 015°22'611.4
2017-Oct-14 18:00N 28°18' W 015°26'611.4
2017-Oct-14 17:30N 28°22' W 015°31'611.3
2017-Oct-14 17:00N 28°26' W 015°35'611.3
2017-Oct-14 16:30N 28°31' W 015°39'611.2
2017-Oct-14 16:00N 28°35' W 015°44'611.4
2017-Oct-14 15:30N 28°38' W 015°49'511.2
2017-Oct-14 15:00N 28°39' W 015°55'611.1
2017-Oct-14 14:30N 28°39' W 016°01'510.9
2017-Oct-14 14:00N 28°39' W 016°08'1310.9
2017-Oct-14 12:49N 28°39' W 016°22'411.3
2017-Oct-14 12:26N 28°39' W 016°27'611.3
2017-Oct-14 11:55N 28°39' W 016°34'611.1
2017-Oct-14 11:25N 28°39' W 016°40'35 0.9
2017-Oct-12 19:25N 28°08' W 016°21'710.6
2017-Oct-12 18:48N 28°14' W 016°18'410.7
2017-Oct-12 18:27N 28°18' W 016°17'511.4
2017-Oct-12 18:00N 28°22' W 016°14'4 8.3
2017-Oct-12 17:30N 28°27' W 016°16'0 0.9
2017-Oct-12 16:57N 28°27' W 016°16'0 0.0
2017-Oct-12 16:30N 28°27' W 016°16'  

Dump ship's entire track history